KCLW

Details ICAO KCLW (CLW)
Name CLEARWATER AIR PARK
Region United States
Timezone America/New_York (UTC-4.0)
Plans Departing 17
Arriving 16
Stats Elevation 71 ft / 22 m (AMSL)
Location 27.976686° -82.758741°
Runways 1
Magnetic Variation 5.456° W
Sunrise 2018-05-26 10:37:57 UTC / 2018-05-26 06:37:57 Local
Sunset 2018-05-27 00:21:07 UTC / 2018-05-26 20:21:07 Local
Advertisement - Login to hide

Runways

ID Width Length Bearing (true) Bearing (mag) Surface Threshold Offset Overrun Length
16 75 ft / 23 m 3,317 ft / 1,011 m 154.76° 160.22° Asphalt 300 ft / 91 m 0 ft / 0 m
34 75 ft / 23 m 3,317 ft / 1,011 m 334.76° 340.22° Asphalt 650 ft / 198 m 0 ft / 0 m

Map

Weather


0- 5 10 15 20 25 30 35+ Temperature / ° C

Clouds and Precipitation
Forecast for 2018-05-26 12:00 UTC. Updated an hour ago

Ground ~20,000 ft ~40,000 ft Winds

METAR

KCLW 261215Z AUTO 13006KT 10SM OVC047 22/20 A2995 RMK AO2

TAF

Not found

Frequencies

Unicom 123.00 MHz CTAF/UNICOM
Approach 125.30 MHz TAMPA APP/DEP
Warning: Do not use this data for real-world aviation or navigation. No guarantee of current accuracy is given.